Terminal Aerodrome Forecast
Issued by NWS

Home | Current Version | Previous Version | Text Only | Print | Product List | Glossary Off
Versions: 1 2 3 4 5 6 7 8 9 10 11 12 13 14 15 16 17 18 19 20 21

000
FTUS43 KTOP 030535 CCA
TAFFOE
TAF COR
KFOE 030535Z 0306/0406 09004KT 5SM -SHRA BR VCTS BKN008CB
      TEMPO 0310/0313 3SM BR BKN007
     FM031400 01005KT P6SM BKN015
     FM031900 03006KT P6SM BKN050=

USA.gov is the U.S. government's official web portal to all federal, state and local government web resources and services.